Woodworth, Wisconsin
Current Conditions -  °F | °C
As of 2:53 AM on Monday 22 Dec 2014 (Local Time) from KENW Reporting Station
Haze Haze  
Wind Chill: 24°   Ceiling: Unl
Heat Index: 31°   Visibility: 5mi
Dew Point: 27°   Wind: 7mph
Humidity: 85%   Direction: 160°SSE
Pressure: 29.97"   Gusts: NA
Location:  42.56°N, 88°W
Report Text: KENW 220853Z AUTO 16006KT 5SM BR FEW055 M01/M03 A2997 RMK AO2 SLP156 T10061028 56012
Loading
Personal Weather Stations






























Interactive Weather Map New forecast layout! Learn more

10-Day Weather Forecast

Advertisements
Track Severe Weather on mobile